createdAt,value
2023-07-24T00:00:35.093Z,100274.94
2023-07-24T00:03:03.370Z,100265.28
2023-07-24T00:05:30.684Z,100260.91
2023-07-24T00:07:57.640Z,100269.78
2023-07-24T00:10:24.636Z,100265.34
2023-07-24T00:12:51.575Z,100261.00
2023-07-24T00:15:18.942Z,100255.63
2023-07-24T00:17:45.967Z,100252.13
2023-07-24T00:20:13.035Z,100246.91
2023-07-24T00:22:39.958Z,100241.47
2023-07-24T00:25:07.250Z,100241.47
2023-07-24T00:27:34.201Z,100238.72
2023-07-24T00:30:01.146Z,100233.38
2023-07-24T00:32:28.168Z,100237.66
2023-07-24T00:34:56.313Z,100232.31
2023-07-24T00:37:25.341Z,100237.47
2023-07-24T00:39:52.269Z,100232.97
2023-07-24T00:42:19.201Z,100230.53
2023-07-24T00:44:48.853Z,100231.06
2023-07-24T00:47:18.821Z,100227.50
2023-07-24T00:49:47.333Z,100215.13
2023-07-24T00:52:14.534Z,100207.13
2023-07-24T00:54:41.704Z,100196.66
2023-07-24T00:57:08.833Z,100209.78
2023-07-24T00:59:36.819Z,100203.53
2023-07-24T01:02:03.987Z,100196.59
2023-07-24T01:04:30.957Z,100215.91
2023-07-24T01:06:58.625Z,100206.97
2023-07-24T01:09:25.552Z,100208.84
2023-07-24T01:12:04.474Z,100201.63
2023-07-24T01:14:47.629Z,100200.75
2023-07-24T01:17:18.318Z,100206.97
2023-07-24T01:19:50.603Z,100209.56
2023-07-24T01:22:29.400Z,100197.97
2023-07-24T01:25:24.964Z,100202.31
2023-07-24T01:27:51.892Z,100197.03
2023-07-24T01:30:21.940Z,100185.72
2023-07-24T01:32:49.697Z,100189.94
2023-07-24T01:35:17.781Z,100188.00
2023-07-24T01:37:45.375Z,100186.22
2023-07-24T01:40:13.375Z,100183.56
2023-07-24T01:42:40.829Z,100185.38
2023-07-24T01:45:08.663Z,100193.22
2023-07-24T01:47:35.713Z,100179.13
2023-07-24T01:50:02.727Z,100188.88
2023-07-24T01:52:29.699Z,100186.22
2023-07-24T01:54:56.652Z,100177.41
2023-07-24T01:57:23.581Z,100176.47
2023-07-24T01:59:50.517Z,100171.97
2023-07-24T02:02:17.716Z,100176.31
2023-07-24T02:04:44.667Z,100175.31
2023-07-24T02:07:11.592Z,100169.09
2023-07-24T02:09:38.509Z,100167.31
2023-07-24T02:12:06.440Z,100157.56
2023-07-24T02:14:33.394Z,100153.06
2023-07-24T02:17:00.372Z,100154.75
2023-07-24T02:19:27.346Z,100164.34
2023-07-24T02:21:54.269Z,100168.75
2023-07-24T02:24:21.248Z,100159.97
2023-07-24T02:26:48.182Z,100165.16
2023-07-24T02:29:15.185Z,100166.97
2023-07-24T02:31:43.989Z,100159.97
2023-07-24T02:34:10.998Z,100153.97
2023-07-24T02:36:42.431Z,100155.75
2023-07-24T02:39:10.068Z,100155.91
2023-07-24T02:41:36.998Z,100157.00
2023-07-24T02:44:05.059Z,100146.72
2023-07-24T02:46:32.269Z,100160.81
2023-07-24T02:48:59.542Z,100155.59
2023-07-24T02:51:26.756Z,100156.63
2023-07-24T02:53:55.561Z,100159.31
2023-07-24T02:56:22.828Z,100147.03
2023-07-24T02:58:50.171Z,100154.09
2023-07-24T03:01:17.174Z,100144.44
2023-07-24T03:03:44.388Z,100156.81
2023-07-24T03:06:11.408Z,100150.66
2023-07-24T03:08:38.321Z,100160.31
2023-07-24T03:11:08.999Z,100149.88
2023-07-24T03:13:35.968Z,100146.34
2023-07-24T03:16:03.399Z,100159.59
2023-07-24T03:18:30.420Z,100160.25
2023-07-24T03:21:00.040Z,100151.44
2023-07-24T03:23:27.429Z,100158.47
2023-07-24T03:25:54.481Z,100151.38
2023-07-24T03:28:21.405Z,100153.97
2023-07-24T03:30:48.521Z,100160.91
2023-07-24T03:33:15.587Z,100162.59
2023-07-24T03:35:42.538Z,100163.44
2023-07-24T03:38:09.444Z,100160.81
2023-07-24T03:40:36.386Z,100166.03
2023-07-24T03:43:04.865Z,100168.59
2023-07-24T03:45:32.745Z,100165.09
2023-07-24T03:47:59.708Z,100176.63
2023-07-24T03:50:26.662Z,100171.34
2023-07-24T03:52:53.593Z,100176.69
2023-07-24T03:55:20.535Z,100174.03
2023-07-24T03:57:47.499Z,100169.75
2023-07-24T04:00:14.968Z,100167.03
2023-07-24T04:02:42.083Z,100167.91
2023-07-24T04:05:09.124Z,100170.59
2023-07-24T04:07:36.081Z,100177.63
2023-07-24T04:10:03.016Z,100173.25
2023-07-24T04:12:30.783Z,100176.06
2023-07-24T04:14:57.715Z,100183.00
2023-07-24T04:17:25.774Z,100183.94
2023-07-24T04:19:52.811Z,100184.78
2023-07-24T04:22:19.877Z,100183.94
2023-07-24T04:24:46.815Z,100185.72
2023-07-24T04:27:13.776Z,100178.72
2023-07-24T04:29:40.703Z,100179.56
2023-07-24T04:32:08.200Z,100175.22
2023-07-24T04:34:35.238Z,100173.50
2023-07-24T04:37:02.183Z,100164.69
2023-07-24T04:39:29.105Z,100163.81
2023-07-24T04:41:56.030Z,100163.81
2023-07-24T04:44:23.056Z,100160.31
2023-07-24T04:46:49.991Z,100155.09
2023-07-24T04:49:17.141Z,100163.97
2023-07-24T04:51:44.074Z,100149.94
2023-07-24T04:54:11.001Z,100156.72
2023-07-24T04:56:38.053Z,100153.97
2023-07-24T04:59:04.977Z,100150.38
2023-07-24T05:01:31.904Z,100154.50
2023-07-24T05:03:58.850Z,100146.56
2023-07-24T05:06:25.762Z,100155.28
2023-07-24T05:08:54.409Z,100136.06
2023-07-24T05:11:21.375Z,100149.78
2023-07-24T05:13:48.307Z,100145.28
2023-07-24T05:16:15.308Z,100136.38
2023-07-24T05:18:42.265Z,100123.72
2023-07-24T05:21:09.253Z,100117.50
2023-07-24T05:23:36.192Z,100127.47
2023-07-24T05:26:04.806Z,100128.94
2023-07-24T05:28:33.576Z,100128.56
2023-07-24T05:31:04.781Z,100121.00
2023-07-24T05:33:32.831Z,100123.19
2023-07-24T05:36:01.148Z,100137.91
2023-07-24T05:38:28.351Z,100136.03
2023-07-24T05:40:57.315Z,100125.28
2023-07-24T05:43:24.545Z,100132.22
2023-07-24T05:45:52.923Z,100119.81
2023-07-24T05:48:19.939Z,100112.72
2023-07-24T05:50:46.983Z,100116.22
2023-07-24T05:53:13.966Z,100103.75
2023-07-24T05:55:41.078Z,100104.38
2023-07-24T05:58:08.026Z,100098.06
2023-07-24T06:00:35.070Z,100098.75
2023-07-24T06:03:02.043Z,100086.28
2023-07-24T06:05:29.012Z,100079.97
2023-07-24T06:07:56.160Z,100081.53
2023-07-24T06:10:23.197Z,100081.53
2023-07-24T06:12:50.150Z,100073.03
2023-07-24T06:15:17.082Z,100086.91
2023-07-24T06:17:44.046Z,100087.38
2023-07-24T06:20:11.241Z,100088.66
2023-07-24T06:22:38.161Z,100092.75
2023-07-24T06:25:05.530Z,100085.31
2023-07-24T06:27:32.483Z,100091.03
2023-07-24T06:30:12.937Z,100082.81
2023-07-24T06:32:42.432Z,100077.97
2023-07-24T06:35:09.490Z,100081.22
2023-07-24T06:37:36.451Z,100076.50
2023-07-24T06:40:03.806Z,100077.09
2023-07-24T06:42:30.907Z,100070.00
2023-07-24T06:44:57.821Z,100080.94
2023-07-24T06:47:24.766Z,100074.44
2023-07-24T06:49:51.770Z,100075.00
2023-07-24T06:52:18.916Z,100075.34
2023-07-24T06:54:45.886Z,100086.53
2023-07-24T06:57:12.838Z,100074.63
2023-07-24T06:59:39.775Z,100065.34
2023-07-24T07:02:06.983Z,100052.47
2023-07-24T07:04:34.020Z,100052.84
2023-07-24T07:07:00.941Z,100054.06
2023-07-24T07:09:27.932Z,100062.63
2023-07-24T07:11:54.859Z,100066.06
2023-07-24T07:14:21.784Z,100056.88
2023-07-24T07:16:48.754Z,100056.28
2023-07-24T07:19:15.901Z,100069.09
2023-07-24T07:21:42.842Z,100053.44
2023-07-24T07:24:09.820Z,100063.25
2023-07-24T07:26:36.800Z,100069.78
2023-07-24T07:29:03.746Z,100064.75
2023-07-24T07:31:31.108Z,100071.38
2023-07-24T07:33:58.077Z,100056.72
2023-07-24T07:36:25.071Z,100055.25
2023-07-24T07:38:51.994Z,100052.00
2023-07-24T07:41:18.931Z,100047.06
2023-07-24T07:43:45.850Z,100044.00
2023-07-24T07:46:12.924Z,100041.91
2023-07-24T07:48:39.878Z,100035.19
2023-07-24T07:51:06.826Z,100032.03
2023-07-24T07:53:33.813Z,100035.13
2023-07-24T07:56:01.246Z,100040.03
2023-07-24T07:58:28.257Z,100032.38
2023-07-24T08:00:55.210Z,100040.69
2023-07-24T08:03:22.404Z,100039.75
2023-07-24T08:05:49.368Z,100033.53
2023-07-24T08:08:16.311Z,100026.81
2023-07-24T08:10:43.241Z,100025.88
2023-07-24T08:13:10.199Z,100023.41
2023-07-24T08:15:38.179Z,100034.81
2023-07-24T08:18:06.157Z,100037.94
2023-07-24T08:20:37.148Z,100034.03
2023-07-24T08:23:04.603Z,100026.16
2023-07-24T08:25:31.801Z,100032.75
2023-07-24T08:28:05.189Z,100015.56
2023-07-24T08:30:34.879Z,100027.31
2023-07-24T08:33:01.857Z,100026.88
2023-07-24T08:35:29.068Z,100025.81
2023-07-24T08:37:56.027Z,100022.81
2023-07-24T08:40:22.977Z,100011.94
2023-07-24T08:42:54.229Z,100012.56
2023-07-24T08:45:21.827Z,100006.91
2023-07-24T08:47:49.797Z,100015.22
2023-07-24T08:50:18.249Z,100026.09
2023-07-24T08:52:46.100Z,100026.19
2023-07-24T08:55:13.317Z,100020.50
2023-07-24T08:57:40.351Z,100020.63
2023-07-24T09:00:07.955Z,100018.69
2023-07-24T09:02:36.739Z,100020.50
2023-07-24T09:05:04.793Z,100015.66
2023-07-24T09:07:32.494Z,100006.59
2023-07-24T09:09:59.678Z,100003.91
2023-07-24T09:12:26.641Z,99988.97
2023-07-24T09:15:06.677Z,99991.88
2023-07-24T09:17:34.134Z,99980.06
2023-07-24T09:20:02.806Z,99983.34
2023-07-24T09:22:29.812Z,99990.41
2023-07-24T09:24:58.886Z,99981.09
2023-07-24T09:27:31.691Z,99972.50
2023-07-24T09:29:59.568Z,99973.53
2023-07-24T09:32:28.285Z,99976.16
2023-07-24T09:34:55.680Z,99968.56
2023-07-24T09:37:27.332Z,99974.16
2023-07-24T09:39:54.522Z,99974.91
2023-07-24T09:42:32.352Z,99974.16
2023-07-24T09:44:59.799Z,99968.22
2023-07-24T09:47:51.454Z,99972.06
2023-07-24T09:50:14.471Z,99969.84
2023-07-24T09:52:44.293Z,99968.50
2023-07-24T09:55:23.225Z,99965.53
2023-07-24T09:57:53.173Z,99966.50
2023-07-24T10:00:21.617Z,99968.28
2023-07-24T10:02:49.639Z,99958.81
2023-07-24T10:05:17.269Z,99952.97
2023-07-24T10:07:44.391Z,99952.09
2023-07-24T10:10:11.713Z,99947.50
2023-07-24T10:12:39.064Z,99947.41
2023-07-24T10:15:07.731Z,99947.44
2023-07-24T10:17:40.011Z,99951.03
2023-07-24T10:20:09.976Z,99934.09
2023-07-24T10:22:42.288Z,99931.91
2023-07-24T10:25:10.553Z,99938.75
2023-07-24T10:27:45.091Z,99934.69
2023-07-24T10:30:27.417Z,99935.69
2023-07-24T10:33:11.767Z,99929.34
2023-07-24T10:35:47.757Z,99934.28
2023-07-24T10:38:16.974Z,99925.53
2023-07-24T10:40:47.636Z,99920.31
2023-07-24T10:43:19.768Z,99925.66
2023-07-24T10:45:51.627Z,99912.31
2023-07-24T10:48:21.223Z,99913.88
2023-07-24T10:50:54.025Z,99910.00
2023-07-24T10:53:24.050Z,99898.88
2023-07-24T10:55:52.966Z,99904.22
2023-07-24T10:58:20.368Z,99899.16
2023-07-24T11:00:48.488Z,99904.84
2023-07-24T11:03:16.161Z,99904.75
2023-07-24T11:05:45.128Z,99913.75
2023-07-24T11:08:20.285Z,99923.81
2023-07-24T11:10:50.457Z,99949.19
2023-07-24T11:13:26.752Z,99961.63
2023-07-24T11:15:55.036Z,99932.84
2023-07-24T11:18:23.542Z,99929.44
2023-07-24T11:20:56.606Z,99940.19
2023-07-24T11:23:25.162Z,99933.63
2023-07-24T11:25:54.143Z,99934.81
2023-07-24T11:28:21.580Z,99930.59
2023-07-24T11:30:48.609Z,99931.31
2023-07-24T11:33:19.561Z,99922.88
2023-07-24T11:35:46.955Z,99930.44
2023-07-24T11:38:14.602Z,99926.00
2023-07-24T11:40:43.806Z,99941.31
2023-07-24T11:43:18.462Z,99935.66
2023-07-24T11:45:47.977Z,99933.22
2023-07-24T11:48:14.995Z,99935.22
2023-07-24T11:50:48.626Z,99929.28
2023-07-24T11:53:32.884Z,99924.78
2023-07-24T11:56:02.164Z,99923.81
2023-07-24T11:58:30.815Z,99921.06
2023-07-24T12:00:58.258Z,99909.56
2023-07-24T12:03:30.171Z,99919.78
2023-07-24T12:05:57.483Z,99905.41
2023-07-24T12:08:36.143Z,99895.28
2023-07-24T12:11:03.676Z,99904.03
2023-07-24T12:13:32.592Z,99896.69
2023-07-24T12:15:59.541Z,99902.31
2023-07-24T12:18:26.511Z,99895.47
2023-07-24T12:20:53.530Z,99906.47
2023-07-24T12:23:20.533Z,99902.41
2023-07-24T12:25:48.585Z,99897.53
2023-07-24T12:28:15.533Z,99895.50
2023-07-24T12:30:42.470Z,99890.34
2023-07-24T12:33:09.527Z,99898.66
2023-07-24T12:35:36.503Z,99897.03
2023-07-24T12:38:03.424Z,99886.97
2023-07-24T12:40:30.351Z,99885.81
2023-07-24T12:42:57.286Z,99876.59
2023-07-24T12:45:24.212Z,99875.19
2023-07-24T12:47:51.240Z,99872.94
2023-07-24T12:50:18.687Z,99873.47
2023-07-24T12:52:45.761Z,99875.91
2023-07-24T12:55:13.213Z,99869.59
2023-07-24T12:57:40.146Z,99858.81
2023-07-24T13:00:07.793Z,99861.38
2023-07-24T13:02:34.823Z,99852.50
2023-07-24T13:05:02.058Z,99843.63
2023-07-24T13:07:30.334Z,99840.25
2023-07-24T13:09:57.247Z,99834.41
2023-07-24T13:12:24.219Z,99841.91
2023-07-24T13:14:51.138Z,99834.09
2023-07-24T13:17:18.241Z,99837.97
2023-07-24T13:19:45.169Z,99829.31
2023-07-24T13:22:12.101Z,99827.63
2023-07-24T13:24:39.032Z,99824.22
2023-07-24T13:27:06.315Z,99828.56
2023-07-24T13:29:33.245Z,99825.81
2023-07-24T13:32:00.167Z,99807.03
2023-07-24T13:34:27.092Z,99810.00
2023-07-24T13:36:54.018Z,99809.41
2023-07-24T13:39:22.564Z,99819.63
2023-07-24T13:41:49.503Z,99820.13
2023-07-24T13:44:16.412Z,99827.69
2023-07-24T13:46:43.360Z,99829.25
2023-07-24T13:49:10.323Z,99824.66
2023-07-24T13:51:37.246Z,99820.78
2023-07-24T13:54:04.241Z,99825.41
2023-07-24T13:56:34.899Z,99826.66
2023-07-24T13:59:02.189Z,99816.38
2023-07-24T14:01:29.854Z,99817.25
2023-07-24T14:03:57.376Z,99815.94
2023-07-24T14:06:24.573Z,99820.41
2023-07-24T14:08:51.583Z,99825.16
2023-07-24T14:11:18.512Z,99828.28
2023-07-24T14:13:47.227Z,99833.88
2023-07-24T14:16:14.408Z,99824.38
2023-07-24T14:18:41.389Z,99805.91
2023-07-24T14:21:08.316Z,99806.88
2023-07-24T14:23:35.333Z,99809.44
2023-07-24T14:26:02.236Z,99814.78
2023-07-24T14:28:29.166Z,99810.38
2023-07-24T14:30:56.098Z,99806.13
2023-07-24T14:33:23.582Z,99799.56
2023-07-24T14:35:50.974Z,99796.28
2023-07-24T14:38:18.064Z,99798.56
2023-07-24T14:40:45.038Z,99801.47
2023-07-24T14:43:12.018Z,99795.41
2023-07-24T14:45:39.071Z,99790.06
2023-07-24T14:48:10.061Z,99789.31
2023-07-24T14:50:37.349Z,99778.78
2023-07-24T14:53:04.505Z,99778.16
2023-07-24T14:55:31.481Z,99771.97
2023-07-24T14:57:58.400Z,99775.72
2023-07-24T15:00:25.472Z,99776.81
2023-07-24T15:02:52.470Z,99775.13
2023-07-24T15:05:19.434Z,99763.72
2023-07-24T15:07:46.337Z,99763.81
2023-07-24T15:10:13.275Z,99745.38
2023-07-24T15:12:40.241Z,99742.94
2023-07-24T15:15:07.738Z,99760.63
2023-07-24T15:17:34.716Z,99765.03
2023-07-24T15:20:01.671Z,99765.75
2023-07-24T15:22:28.633Z,99770.88
2023-07-24T15:24:55.702Z,99779.72
2023-07-24T15:27:22.686Z,99770.88
2023-07-24T15:29:49.701Z,99772.66
2023-07-24T15:32:17.974Z,99760.91
2023-07-24T15:34:45.223Z,99753.28
2023-07-24T15:37:12.207Z,99748.56
2023-07-24T15:39:39.125Z,99741.41
2023-07-24T15:42:06.201Z,99727.09
2023-07-24T15:44:33.142Z,99727.94
2023-07-24T15:47:00.112Z,99719.91
2023-07-24T15:49:27.092Z,99719.09
2023-07-24T15:51:54.757Z,99713.88
2023-07-24T15:54:22.007Z,99712.78
2023-07-24T15:56:48.955Z,99701.97
2023-07-24T15:59:15.907Z,99698.94
2023-07-24T16:01:42.909Z,99691.69
2023-07-24T16:04:09.919Z,99694.47
2023-07-24T16:06:36.894Z,99700.44
2023-07-24T16:09:03.891Z,99691.44
2023-07-24T16:11:31.057Z,99698.25
2023-07-24T16:13:58.119Z,99695.44
2023-07-24T16:16:25.062Z,99681.72
2023-07-24T16:19:18.247Z,99679.78
2023-07-24T16:21:47.721Z,99671.28
2023-07-24T16:24:18.448Z,99676.63
2023-07-24T16:26:46.606Z,99670.31
2023-07-24T16:29:13.669Z,99673.00
2023-07-24T16:31:41.014Z,99678.44
2023-07-24T16:34:08.338Z,99666.44
2023-07-24T16:36:36.297Z,99667.63
2023-07-24T16:39:05.291Z,99667.78
2023-07-24T16:41:33.685Z,99669.72
2023-07-24T16:44:02.735Z,99668.25
2023-07-24T16:46:30.511Z,99668.75
2023-07-24T16:48:57.489Z,99672.50
2023-07-24T16:51:24.488Z,99673.69
2023-07-24T16:53:51.494Z,99671.38
2023-07-24T16:56:18.436Z,99663.72
2023-07-24T16:58:45.442Z,99660.13
2023-07-24T17:01:12.681Z,99654.03
2023-07-24T17:03:39.818Z,99655.03
2023-07-24T17:06:06.860Z,99653.94
2023-07-24T17:08:33.761Z,99658.41
2023-07-24T17:11:00.813Z,99651.72
2023-07-24T17:13:27.940Z,99660.34
2023-07-24T17:15:54.888Z,99657.91
2023-07-24T17:18:21.811Z,99652.94
2023-07-24T17:20:51.119Z,99658.88
2023-07-24T17:23:18.469Z,99661.00
2023-07-24T17:25:47.399Z,99655.31
2023-07-24T17:28:14.444Z,99650.41
2023-07-24T17:30:41.405Z,99663.88
2023-07-24T17:33:08.425Z,99659.00
2023-07-24T17:35:35.388Z,99672.69
2023-07-24T17:38:02.408Z,99669.75
2023-07-24T17:40:29.537Z,99669.00
2023-07-24T17:42:56.471Z,99677.50
2023-07-24T17:45:23.447Z,99671.75
2023-07-24T17:47:50.471Z,99665.41
2023-07-24T17:50:17.483Z,99660.09
2023-07-24T17:52:44.513Z,99654.22
2023-07-24T17:55:11.527Z,99651.03
2023-07-24T17:57:38.501Z,99645.19
2023-07-24T18:00:06.793Z,99650.88
2023-07-24T18:02:33.912Z,99648.78
2023-07-24T18:05:00.895Z,99640.16
2023-07-24T18:07:27.840Z,99637.00
2023-07-24T18:09:54.785Z,99639.25
2023-07-24T18:12:22.175Z,99652.03
2023-07-24T18:14:49.121Z,99642.56
2023-07-24T18:17:16.077Z,99631.53
2023-07-24T18:19:43.041Z,99639.59
2023-07-24T18:22:09.954Z,99642.50
2023-07-24T18:24:36.914Z,99640.88
2023-07-24T18:27:03.972Z,99639.38
2023-07-24T18:29:32.146Z,99643.97
2023-07-24T18:31:59.220Z,99634.38
2023-07-24T18:34:26.177Z,99628.44
2023-07-24T18:36:53.107Z,99623.44
2023-07-24T18:39:20.036Z,99638.81
2023-07-24T18:41:47.828Z,99642.72
2023-07-24T18:44:15.244Z,99645.59
2023-07-24T18:46:42.596Z,99643.16
2023-07-24T18:49:09.522Z,99649.66
2023-07-24T18:51:36.455Z,99662.44
2023-07-24T18:54:03.499Z,99660.22
2023-07-24T18:56:30.443Z,99661.50
2023-07-24T18:58:57.382Z,99653.09
2023-07-24T19:01:25.882Z,99637.44
2023-07-24T19:03:52.980Z,99635.94
2023-07-24T19:06:21.769Z,99640.59
2023-07-24T19:08:49.156Z,99647.06
2023-07-24T19:11:17.679Z,99645.59
2023-07-24T19:13:44.595Z,99645.91
2023-07-24T19:16:11.561Z,99653.13
2023-07-24T19:18:38.567Z,99652.50
2023-07-24T19:21:05.869Z,99647.41
2023-07-24T19:23:32.971Z,99646.75
2023-07-24T19:25:59.947Z,99635.47
2023-07-24T19:28:26.993Z,99633.97
2023-07-24T19:30:58.864Z,99637.78
2023-07-24T19:33:26.307Z,99641.50
2023-07-24T19:36:02.535Z,99650.75
2023-07-24T19:38:29.696Z,99657.13
2023-07-24T19:41:01.593Z,99652.94
2023-07-24T19:43:29.569Z,99661.97
2023-07-24T19:45:56.744Z,99665.88
2023-07-24T19:48:25.909Z,99676.59
2023-07-24T19:50:58.752Z,99680.50
2023-07-24T19:53:26.898Z,99680.81
2023-07-24T19:55:54.728Z,99690.13
2023-07-24T19:58:33.217Z,99687.97
2023-07-24T20:01:01.562Z,99694.44
2023-07-24T20:03:29.378Z,99695.56
2023-07-24T20:06:04.570Z,99702.13
2023-07-24T20:08:35.417Z,99712.19
2023-07-24T20:11:07.442Z,99714.19
2023-07-24T20:13:35.411Z,99719.78
2023-07-24T20:16:02.711Z,99728.88
2023-07-24T20:18:29.805Z,99722.81
2023-07-24T20:20:57.509Z,99716.78
2023-07-24T20:23:24.607Z,99709.75
2023-07-24T20:25:52.086Z,99707.16
2023-07-24T20:28:21.668Z,99707.38
2023-07-24T20:30:48.831Z,99715.50
2023-07-24T20:33:16.358Z,99720.03
2023-07-24T20:35:45.963Z,99730.78
2023-07-24T20:38:27.478Z,99718.53
2023-07-24T20:40:54.611Z,99719.59
2023-07-24T20:43:21.743Z,99733.59
2023-07-24T20:45:48.732Z,99738.06
2023-07-24T20:48:15.716Z,99742.59
2023-07-24T20:50:42.664Z,99731.41
2023-07-24T20:53:10.514Z,99726.03
2023-07-24T20:55:37.582Z,99731.25
2023-07-24T20:58:04.716Z,99733.13
2023-07-24T21:00:31.797Z,99724.69
2023-07-24T21:02:59.036Z,99731.81
2023-07-24T21:05:26.096Z,99723.16
2023-07-24T21:07:54.974Z,99729.22
2023-07-24T21:10:22.078Z,99724.97
2023-07-24T21:12:49.221Z,99728.56
2023-07-24T21:15:16.188Z,99732.47
2023-07-24T21:17:43.185Z,99730.66
2023-07-24T21:20:10.760Z,99714.94
2023-07-24T21:22:37.687Z,99722.13
2023-07-24T21:25:04.784Z,99718.91
2023-07-24T21:27:31.742Z,99716.31
2023-07-24T21:29:58.700Z,99728.81
2023-07-24T21:32:25.641Z,99723.22
2023-07-24T21:34:52.660Z,99711.75
2023-07-24T21:37:19.593Z,99727.09
2023-07-24T21:39:46.529Z,99717.78
2023-07-24T21:42:13.487Z,99718.13
2023-07-24T21:44:40.444Z,99715.81
2023-07-24T21:47:07.500Z,99713.63
2023-07-24T21:49:34.479Z,99727.25
2023-07-24T21:52:01.503Z,99735.38
2023-07-24T21:54:28.447Z,99746.31
2023-07-24T21:56:55.491Z,99743.19
2023-07-24T21:59:22.487Z,99734.81
2023-07-24T22:01:49.379Z,99743.78
2023-07-24T22:04:16.348Z,99747.63
2023-07-24T22:06:43.273Z,99747.13
2023-07-24T22:09:10.247Z,99750.13
2023-07-24T22:11:37.221Z,99757.41
2023-07-24T22:14:04.279Z,99755.88
2023-07-24T22:16:31.231Z,99759.75
2023-07-24T22:18:58.190Z,99766.22
2023-07-24T22:21:25.145Z,99772.72
2023-07-24T22:23:52.083Z,99777.38
2023-07-24T22:26:19.478Z,99776.88
2023-07-24T22:28:46.427Z,99793.16
2023-07-24T22:31:13.423Z,99779.63
2023-07-24T22:33:40.349Z,99794.66
2023-07-24T22:36:07.266Z,99791.41
2023-07-24T22:38:34.176Z,99793.44
2023-07-24T22:41:12.702Z,99783.19
2023-07-24T22:43:40.181Z,99795.63
2023-07-24T22:46:07.337Z,99791.56
2023-07-24T22:48:34.534Z,99792.66
2023-07-24T22:51:01.569Z,99787.69
2023-07-24T22:53:28.514Z,99785.28
2023-07-24T22:55:55.454Z,99787.28
2023-07-24T22:58:22.366Z,99791.13
2023-07-24T23:00:49.338Z,99794.06
2023-07-24T23:03:16.322Z,99801.34
2023-07-24T23:05:43.344Z,99796.28
2023-07-24T23:08:10.245Z,99802.69
2023-07-24T23:10:37.185Z,99795.88
2023-07-24T23:13:04.101Z,99791.78
2023-07-24T23:15:31.046Z,99794.72
2023-07-24T23:17:57.999Z,99797.59
2023-07-24T23:20:25.153Z,99801.31
2023-07-24T23:22:52.064Z,99802.44
2023-07-24T23:25:19.050Z,99800.84
2023-07-24T23:27:46.035Z,99798.47
2023-07-24T23:30:12.973Z,99802.22
2023-07-24T23:32:39.927Z,99808.59
2023-07-24T23:35:07.294Z,99809.66
2023-07-24T23:37:34.219Z,99814.25
2023-07-24T23:40:01.158Z,99808.22
2023-07-24T23:42:28.078Z,99818.16
2023-07-24T23:44:54.980Z,99821.88
2023-07-24T23:47:21.910Z,99826.53
2023-07-24T23:49:48.889Z,99833.75
2023-07-24T23:52:15.812Z,99828.63
2023-07-24T23:54:42.733Z,99831.28
2023-07-24T23:57:09.653Z,99836.66
2023-07-24T23:59:36.581Z,99834.91
